createdAt,value
2019-03-26T00:00:57.889Z,4.73
2019-03-26T00:03:29.761Z,4.73
2019-03-26T00:06:01.952Z,5.47
2019-03-26T00:08:33.897Z,4.07
2019-03-26T00:11:05.109Z,4.50
2019-03-26T00:13:37.923Z,3.53
2019-03-26T00:16:09.513Z,3.20
2019-03-26T00:18:40.747Z,3.10
2019-03-26T00:21:12.283Z,3.27
2019-03-26T00:23:43.858Z,3.47
2019-03-26T00:26:15.561Z,3.93
2019-03-26T00:28:47.321Z,3.37
2019-03-26T00:31:18.917Z,3.17
2019-03-26T00:33:50.631Z,3.70
2019-03-26T00:36:22.241Z,2.80
2019-03-26T00:38:53.441Z,3.30
2019-03-26T00:41:25.230Z,3.17
2019-03-26T00:43:56.789Z,3.53
2019-03-26T00:46:28.766Z,3.10
2019-03-26T00:49:00.245Z,3.77
2019-03-26T00:51:31.461Z,3.23
2019-03-26T00:54:02.674Z,3.47
2019-03-26T00:56:33.889Z,4.23
2019-03-26T00:59:05.727Z,2.90
2019-03-26T01:01:37.280Z,2.47
2019-03-26T01:04:08.878Z,3.30
2019-03-26T01:06:40.169Z,2.97
2019-03-26T01:09:12.448Z,2.70
2019-03-26T01:11:43.745Z,2.70
2019-03-26T01:14:15.064Z,3.30
2019-03-26T01:16:46.282Z,2.77
2019-03-26T01:19:17.506Z,3.57
2019-03-26T01:21:48.737Z,2.70
2019-03-26T01:24:19.972Z,3.33
2019-03-26T01:26:51.473Z,2.90
2019-03-26T01:29:22.693Z,3.77
2019-03-26T01:31:53.916Z,3.60
2019-03-26T01:34:25.205Z,3.00
2019-03-26T01:36:57.106Z,3.00
2019-03-26T01:39:28.346Z,2.23
2019-03-26T01:41:59.854Z,3.33
2019-03-26T01:44:32.858Z,3.00
2019-03-26T01:47:05.387Z,3.67
2019-03-26T01:49:36.611Z,3.33
2019-03-26T01:52:07.925Z,2.50
2019-03-26T01:54:39.917Z,2.43
2019-03-26T01:57:11.451Z,3.07
2019-03-26T01:59:42.665Z,3.07
2019-03-26T03:00:19.186Z,3.03
2019-03-26T03:02:50.764Z,4.47
2019-03-26T03:05:35.009Z,4.47
2019-03-26T03:07:58.273Z,4.53
2019-03-26T03:10:31.099Z,4.10
2019-03-26T03:13:02.759Z,4.63
2019-03-26T03:15:34.635Z,5.13
2019-03-26T03:18:05.960Z,4.50
2019-03-26T03:20:37.446Z,3.80
2019-03-26T03:23:09.650Z,3.53
2019-03-26T03:25:42.018Z,3.43
2019-03-26T03:28:13.313Z,3.67
2019-03-26T03:30:44.614Z,3.17
2019-03-26T03:33:16.177Z,3.03
2019-03-26T03:35:52.499Z,3.80
2019-03-26T03:38:21.487Z,3.47
2019-03-26T03:40:53.030Z,3.67
2019-03-26T03:43:24.702Z,3.83
2019-03-26T03:45:56.326Z,3.53
2019-03-26T03:48:28.035Z,4.93
2019-03-26T03:51:02.660Z,4.73
2019-03-26T03:53:34.698Z,3.73
2019-03-26T03:56:06.837Z,5.80
2019-03-26T03:58:39.881Z,5.13
2019-03-26T04:01:11.449Z,5.00
2019-03-26T04:03:43.691Z,4.27
2019-03-26T04:06:15.290Z,4.13
2019-03-26T04:08:46.778Z,5.23
2019-03-26T04:11:18.388Z,4.20
2019-03-26T04:13:49.611Z,4.57
2019-03-26T04:16:21.107Z,6.23
2019-03-26T04:18:52.946Z,5.23
2019-03-26T04:21:24.530Z,4.50
2019-03-26T04:23:55.817Z,4.97
2019-03-26T04:26:27.069Z,6.03
2019-03-26T04:28:58.346Z,5.67
2019-03-26T04:31:29.585Z,5.50
2019-03-26T04:34:01.289Z,5.03
2019-03-26T04:36:45.701Z,6.50
2019-03-26T04:39:16.914Z,6.43
2019-03-26T04:41:48.441Z,5.40
2019-03-26T04:44:20.073Z,5.90
2019-03-26T04:46:51.466Z,4.73
2019-03-26T04:49:22.982Z,5.53
2019-03-26T04:51:54.727Z,4.67
2019-03-26T04:54:25.985Z,5.33
2019-03-26T04:56:57.532Z,6.50
2019-03-26T04:59:29.133Z,5.03
2019-03-26T05:02:00.712Z,4.57
2019-03-26T05:04:32.210Z,6.70
2019-03-26T05:07:03.727Z,5.40
2019-03-26T05:09:35.347Z,6.27
2019-03-26T05:12:06.577Z,5.50
2019-03-26T05:14:38.046Z,7.70
2019-03-26T05:17:10.250Z,8.47
2019-03-26T05:19:41.479Z,7.77
2019-03-26T05:22:23.625Z,7.97
2019-03-26T05:24:45.744Z,9.00
2019-03-26T05:27:17.441Z,6.60
2019-03-26T05:29:48.944Z,8.47
2019-03-26T05:32:20.168Z,7.00
2019-03-26T05:34:51.411Z,9.70
2019-03-26T05:37:23.281Z,8.67
2019-03-26T05:39:54.741Z,7.63
2019-03-26T05:42:27.205Z,7.47
2019-03-26T05:45:00.380Z,6.73
2019-03-26T05:47:31.609Z,6.80
2019-03-26T05:50:03.437Z,8.13
2019-03-26T05:52:34.708Z,7.37
2019-03-26T05:55:08.761Z,7.90
2019-03-26T05:57:42.109Z,8.43
2019-03-26T06:00:19.940Z,9.57
2019-03-26T06:02:51.517Z,9.17
2019-03-26T06:05:22.780Z,10.00
2019-03-26T06:07:54.026Z,11.30
2019-03-26T06:10:25.558Z,12.30
2019-03-26T06:12:58.673Z,8.50
2019-03-26T06:15:30.543Z,10.00
2019-03-26T06:18:02.450Z,9.13
2019-03-26T06:20:34.229Z,11.77
2019-03-26T06:23:05.468Z,12.23
2019-03-26T06:25:37.937Z,10.47
2019-03-26T06:28:09.213Z,12.17
2019-03-26T06:30:40.457Z,10.17
2019-03-26T06:33:12.073Z,10.20
2019-03-26T06:35:43.688Z,11.20
2019-03-26T06:38:14.932Z,10.47
2019-03-26T06:40:46.438Z,10.27
2019-03-26T06:43:17.669Z,10.17
2019-03-26T06:45:49.186Z,12.10
2019-03-26T06:48:20.414Z,11.07
2019-03-26T06:50:52.281Z,9.07
2019-03-26T06:53:24.306Z,14.17
2019-03-26T06:55:55.568Z,176.30
2019-03-26T06:58:28.138Z,129.70
2019-03-26T07:00:59.757Z,74.47
2019-03-26T07:03:31.253Z,16.80
2019-03-26T07:06:02.777Z,12.73
2019-03-26T07:08:34.004Z,10.50
2019-03-26T07:11:06.173Z,12.10
2019-03-26T07:13:37.399Z,10.77
2019-03-26T07:16:08.891Z,10.40
2019-03-26T07:18:40.409Z,11.00
2019-03-26T07:21:11.902Z,10.07
2019-03-26T07:23:43.602Z,8.53
2019-03-26T07:26:14.909Z,8.93
2019-03-26T07:28:46.586Z,10.20
2019-03-26T07:31:18.114Z,9.57
2019-03-26T07:33:49.357Z,10.30
2019-03-26T07:36:20.858Z,9.87
2019-03-26T07:38:52.592Z,11.40
2019-03-26T07:41:23.838Z,10.03
2019-03-26T07:43:55.096Z,9.00
2019-03-26T07:46:26.653Z,9.80
2019-03-26T07:48:58.417Z,9.70
2019-03-26T07:51:30.525Z,7.70
2019-03-26T07:54:02.185Z,6.93
2019-03-26T07:56:33.581Z,6.97
2019-03-26T07:59:05.117Z,9.67
2019-03-26T08:01:37.043Z,8.03
2019-03-26T08:04:08.298Z,8.47
2019-03-26T08:06:39.521Z,9.17
2019-03-26T08:09:11.145Z,9.53
2019-03-26T08:11:42.962Z,8.53
2019-03-26T08:14:14.664Z,8.80
2019-03-26T08:16:46.002Z,10.20
2019-03-26T08:19:17.865Z,8.80
2019-03-26T08:21:49.674Z,8.83
2019-03-26T08:24:21.197Z,7.83
2019-03-26T08:26:52.561Z,14.57
2019-03-26T08:29:24.185Z,8.60
2019-03-26T08:31:57.045Z,8.43
2019-03-26T08:34:28.638Z,9.50
2019-03-26T08:37:00.211Z,10.37
2019-03-26T08:39:31.663Z,8.87
2019-03-26T08:42:02.898Z,9.20
2019-03-26T08:44:35.022Z,10.37
2019-03-26T08:47:06.454Z,9.30
2019-03-26T08:49:38.269Z,8.70
2019-03-26T08:52:10.289Z,8.40
2019-03-26T08:54:42.833Z,8.10
2019-03-26T08:57:14.615Z,7.23
2019-03-26T08:59:46.334Z,7.23
2019-03-26T09:02:18.081Z,8.17
2019-03-26T09:04:49.553Z,7.70
2019-03-26T09:07:21.894Z,8.10
2019-03-26T09:09:53.577Z,8.33
2019-03-26T09:12:25.085Z,7.83
2019-03-26T09:14:56.338Z,6.70
2019-03-26T09:17:29.207Z,9.03
2019-03-26T09:20:00.897Z,9.00
2019-03-26T09:22:32.710Z,6.87
2019-03-26T09:25:04.130Z,8.23
2019-03-26T09:27:36.174Z,8.00
2019-03-26T09:30:09.536Z,8.27
2019-03-26T09:32:41.224Z,7.83
2019-03-26T09:35:13.049Z,9.90
2019-03-26T09:37:44.592Z,6.50
2019-03-26T09:40:17.447Z,7.53
2019-03-26T09:42:48.877Z,9.03
2019-03-26T09:45:21.161Z,8.93
2019-03-26T09:47:53.678Z,12.27
2019-03-26T09:50:38.157Z,8.07
2019-03-26T09:53:09.745Z,11.50
2019-03-26T09:55:41.373Z,10.20
2019-03-26T09:58:12.606Z,9.27
2019-03-26T10:00:44.712Z,6.83
2019-03-26T10:03:16.298Z,10.07
2019-03-26T10:05:48.473Z,16.77
2019-03-26T10:08:20.156Z,7.83
2019-03-26T10:10:52.404Z,8.70
2019-03-26T10:13:24.364Z,8.37
2019-03-26T10:15:55.635Z,7.77
2019-03-26T10:18:27.241Z,6.77
2019-03-26T10:20:58.800Z,10.13
2019-03-26T10:23:30.398Z,9.57
2019-03-26T10:26:02.283Z,8.87
2019-03-26T10:28:33.818Z,7.57
2019-03-26T10:31:05.136Z,7.93
2019-03-26T10:33:36.423Z,7.50
2019-03-26T10:36:07.960Z,7.17
2019-03-26T10:38:39.203Z,7.63
2019-03-26T10:41:11.591Z,8.07
2019-03-26T10:43:42.917Z,8.47
2019-03-26T10:46:14.452Z,7.17
2019-03-26T10:48:46.593Z,7.40
2019-03-26T10:51:18.494Z,7.10
2019-03-26T10:53:49.862Z,7.17
2019-03-26T10:56:21.392Z,6.67
2019-03-26T10:58:53.713Z,6.00
2019-03-26T11:01:25.329Z,6.63
2019-03-26T11:03:57.531Z,6.40
2019-03-26T11:06:28.830Z,5.53
2019-03-26T11:09:00.613Z,6.83
2019-03-26T11:11:34.671Z,6.77
2019-03-26T11:14:07.945Z,7.47
2019-03-26T11:16:42.673Z,6.53
2019-03-26T11:19:14.167Z,7.43
2019-03-26T11:21:49.847Z,6.27
2019-03-26T11:24:21.065Z,6.93
2019-03-26T11:26:52.577Z,6.93
2019-03-26T11:29:24.072Z,6.93
2019-03-26T11:31:55.617Z,7.30
2019-03-26T11:34:27.117Z,6.87
2019-03-26T11:36:58.374Z,6.53
2019-03-26T11:39:32.975Z,6.10
2019-03-26T11:42:03.594Z,6.37
2019-03-26T11:44:37.550Z,5.93
2019-03-26T11:47:08.773Z,6.23
2019-03-26T11:49:40.277Z,6.10
2019-03-26T11:52:12.941Z,6.17
2019-03-26T11:54:44.506Z,6.60
2019-03-26T11:57:16.186Z,7.20
2019-03-26T11:59:47.722Z,7.07
2019-03-26T12:02:20.258Z,5.93
2019-03-26T12:04:52.913Z,6.83
2019-03-26T12:07:24.158Z,5.67
2019-03-26T12:09:55.390Z,5.50
2019-03-26T12:12:27.861Z,6.20
2019-03-26T12:15:01.113Z,5.60
2019-03-26T12:17:32.394Z,4.57
2019-03-26T12:20:03.658Z,5.43
2019-03-26T12:22:35.178Z,5.27
2019-03-26T12:25:06.738Z,5.27
2019-03-26T12:27:38.435Z,4.77
2019-03-26T12:30:11.142Z,5.53
2019-03-26T12:32:43.294Z,6.80
2019-03-26T12:35:29.034Z,5.50
2019-03-26T12:38:20.461Z,5.63
2019-03-26T12:40:54.952Z,5.53
2019-03-26T12:43:32.727Z,5.83
2019-03-26T12:46:08.832Z,4.07
2019-03-26T12:48:41.871Z,4.80
2019-03-26T12:51:15.838Z,4.73
2019-03-26T12:53:48.593Z,5.70
2019-03-26T12:56:21.286Z,6.03
2019-03-26T12:58:54.502Z,5.07
2019-03-26T13:01:27.825Z,5.23
2019-03-26T13:04:11.871Z,6.37
2019-03-26T13:06:35.519Z,5.37
2019-03-26T13:09:09.377Z,4.30
2019-03-26T13:11:40.916Z,6.03
2019-03-26T13:14:12.531Z,4.63
2019-03-26T13:16:45.198Z,4.80
2019-03-26T13:19:17.772Z,5.13
2019-03-26T13:21:50.602Z,5.30
2019-03-26T13:24:22.996Z,5.53
2019-03-26T13:26:56.006Z,4.20
2019-03-26T13:29:28.096Z,4.80
2019-03-26T13:31:59.998Z,4.73
2019-03-26T13:34:32.461Z,4.10
2019-03-26T13:37:05.862Z,5.27
2019-03-26T13:39:38.741Z,4.37
2019-03-26T13:42:12.223Z,4.60
2019-03-26T13:44:44.261Z,4.30
2019-03-26T13:47:16.753Z,4.37
2019-03-26T13:49:50.641Z,4.77
2019-03-26T13:52:22.782Z,5.40
2019-03-26T13:54:56.142Z,4.83
2019-03-26T13:57:28.486Z,3.53
2019-03-26T14:00:01.777Z,4.67
2019-03-26T14:02:33.975Z,4.70
2019-03-26T14:05:08.838Z,4.20
2019-03-26T14:07:40.721Z,4.80
2019-03-26T14:10:12.975Z,3.50
2019-03-26T14:12:46.902Z,3.43
2019-03-26T14:15:19.512Z,4.97
2019-03-26T14:17:51.729Z,3.40
2019-03-26T14:20:25.767Z,3.17
2019-03-26T14:22:58.434Z,4.63
2019-03-26T14:25:31.049Z,3.30
2019-03-26T14:28:04.105Z,3.53
2019-03-26T14:30:41.697Z,3.53
2019-03-26T14:33:14.464Z,3.57
2019-03-26T14:35:46.763Z,3.60
2019-03-26T14:38:19.708Z,4.50
2019-03-26T14:40:55.178Z,3.27
2019-03-26T14:43:26.198Z,3.97
2019-03-26T14:45:58.531Z,2.87
2019-03-26T14:48:31.398Z,4.03
2019-03-26T14:51:04.625Z,3.23
2019-03-26T14:53:37.411Z,3.77
2019-03-26T14:56:09.946Z,3.90
2019-03-26T14:58:43.074Z,4.43
2019-03-26T15:01:16.774Z,4.40
2019-03-26T15:03:49.798Z,4.30
2019-03-26T15:06:22.469Z,4.03
2019-03-26T15:08:55.857Z,4.43
2019-03-26T15:11:27.977Z,3.70
2019-03-26T15:14:00.912Z,4.03
2019-03-26T15:16:34.644Z,4.67
2019-03-26T15:19:08.872Z,5.30
2019-03-26T15:21:42.398Z,5.13
2019-03-26T15:24:15.842Z,4.20
2019-03-26T15:26:47.727Z,4.87
2019-03-26T15:29:20.693Z,4.70
2019-03-26T15:31:55.071Z,3.70
2019-03-26T15:34:36.078Z,4.40
2019-03-26T15:37:02.338Z,4.90
2019-03-26T15:39:34.502Z,5.77
2019-03-26T15:42:09.036Z,5.57
2019-03-26T15:44:42.097Z,5.27
2019-03-26T15:47:14.563Z,6.97
2019-03-26T15:49:48.231Z,5.07
2019-03-26T15:52:22.082Z,6.77
2019-03-26T15:54:55.238Z,6.10
2019-03-26T15:57:26.994Z,5.73
2019-03-26T15:59:59.167Z,8.57
2019-03-26T16:02:31.456Z,5.50
2019-03-26T16:05:16.276Z,6.20
2019-03-26T16:07:49.154Z,5.83
2019-03-26T16:10:23.079Z,5.03
2019-03-26T16:12:56.952Z,5.63
2019-03-26T16:15:29.393Z,9.77
2019-03-26T16:18:00.672Z,6.07
2019-03-26T16:20:33.061Z,4.47
2019-03-26T16:23:05.541Z,5.13
2019-03-26T16:25:37.647Z,5.33
2019-03-26T16:28:10.685Z,6.17
2019-03-26T16:30:43.099Z,5.40
2019-03-26T16:33:15.401Z,11.10
2019-03-26T16:35:48.071Z,7.50
2019-03-26T16:38:21.483Z,9.03
2019-03-26T16:40:55.672Z,6.00
2019-03-26T16:43:29.186Z,5.13
2019-03-26T16:46:02.865Z,27.60
2019-03-26T16:48:34.686Z,17.10
2019-03-26T16:51:07.106Z,6.70
2019-03-26T16:53:40.906Z,10.33
2019-03-26T16:56:17.889Z,5.13
2019-03-26T16:58:50.034Z,9.63
2019-03-26T17:01:21.923Z,6.43
2019-03-26T17:03:54.289Z,5.53
2019-03-26T17:06:26.823Z,5.73
2019-03-26T17:08:59.073Z,8.57
2019-03-26T17:11:31.485Z,11.83
2019-03-26T17:14:04.058Z,5.13
2019-03-26T17:16:35.934Z,5.47
2019-03-26T17:19:09.870Z,4.77
2019-03-26T17:21:45.062Z,6.30
2019-03-26T17:24:17.680Z,6.03
2019-03-26T17:26:50.330Z,5.73
2019-03-26T17:29:23.091Z,6.27
2019-03-26T17:31:54.799Z,6.37
2019-03-26T17:34:47.646Z,5.30
2019-03-26T17:37:19.521Z,7.13
2019-03-26T17:39:52.125Z,6.63
2019-03-26T17:42:24.549Z,6.63
2019-03-26T17:44:58.369Z,6.90
2019-03-26T17:47:31.102Z,7.70
2019-03-26T17:50:03.511Z,7.00
2019-03-26T17:52:35.649Z,6.53
2019-03-26T17:55:08.762Z,6.00
2019-03-26T17:57:41.047Z,7.33
2019-03-26T18:00:17.804Z,6.30
2019-03-26T18:02:55.436Z,7.00
2019-03-26T18:05:32.259Z,6.83
2019-03-26T18:08:04.809Z,8.73
2019-03-26T18:10:37.314Z,6.63
2019-03-26T18:13:11.889Z,7.27
2019-03-26T18:15:51.000Z,6.03
2019-03-26T18:18:24.046Z,5.90
2019-03-26T18:20:57.966Z,7.93
2019-03-26T18:23:31.963Z,7.50
2019-03-26T18:26:05.519Z,6.73
2019-03-26T18:28:37.706Z,6.63
2019-03-26T18:31:10.648Z,5.27
2019-03-26T18:33:42.655Z,6.47
2019-03-26T18:36:19.673Z,5.30
2019-03-26T18:38:56.334Z,5.90
2019-03-26T18:41:29.244Z,6.50
2019-03-26T18:44:01.985Z,6.70
2019-03-26T18:46:34.579Z,6.70
2019-03-26T18:49:10.902Z,5.97
2019-03-26T18:51:42.653Z,5.53
2019-03-26T18:54:14.911Z,7.20
2019-03-26T18:56:47.800Z,7.90
2019-03-26T18:59:20.743Z,7.07
2019-03-26T19:01:52.782Z,7.90
2019-03-26T19:04:24.962Z,7.97
2019-03-26T19:06:58.006Z,7.07
2019-03-26T19:09:30.388Z,7.43
2019-03-26T19:12:03.019Z,7.53
2019-03-26T19:14:36.082Z,8.93
2019-03-26T19:17:09.199Z,6.67
2019-03-26T19:19:42.055Z,7.13
2019-03-26T19:22:14.053Z,7.63
2019-03-26T19:24:46.987Z,8.80
2019-03-26T19:27:19.758Z,7.27
2019-03-26T19:29:51.763Z,9.07
2019-03-26T19:32:25.288Z,10.10
2019-03-26T19:34:59.041Z,9.10
2019-03-26T19:37:32.003Z,8.43
2019-03-26T19:40:03.871Z,8.73
2019-03-26T19:42:35.555Z,8.33
2019-03-26T19:45:08.936Z,8.43
2019-03-26T19:47:42.370Z,7.73
2019-03-26T19:50:15.981Z,9.57
2019-03-26T19:52:48.826Z,8.70
2019-03-26T19:55:20.480Z,9.30
2019-03-26T19:57:52.953Z,10.13
2019-03-26T20:00:26.984Z,9.17
2019-03-26T20:03:00.282Z,9.23
2019-03-26T20:05:35.168Z,7.60
2019-03-26T20:08:06.847Z,6.50
2019-03-26T20:10:39.158Z,10.43
2019-03-26T20:13:23.730Z,7.80
2019-03-26T20:15:46.356Z,7.50
2019-03-26T20:18:19.258Z,9.17
2019-03-26T20:20:51.825Z,8.63
2019-03-26T20:23:24.154Z,7.37
2019-03-26T20:25:56.035Z,23.67
2019-03-26T20:28:31.372Z,23.23
2019-03-26T20:31:03.947Z,17.90
2019-03-26T20:33:37.523Z,8.80
2019-03-26T20:36:11.981Z,9.03
2019-03-26T20:38:44.811Z,8.93
2019-03-26T20:41:19.511Z,8.33
2019-03-26T20:43:51.330Z,7.50
2019-03-26T20:46:24.119Z,7.67
2019-03-26T20:48:55.483Z,10.40
2019-03-26T20:51:28.475Z,8.70
2019-03-26T20:54:01.047Z,9.77
2019-03-26T20:56:35.351Z,10.40
2019-03-26T20:59:07.646Z,9.57
2019-03-26T21:01:41.451Z,8.73
2019-03-26T21:04:13.724Z,8.03
2019-03-26T21:06:47.375Z,9.57
2019-03-26T21:09:19.094Z,9.93
2019-03-26T21:11:51.134Z,7.93
2019-03-26T21:14:23.668Z,9.73
2019-03-26T21:16:55.722Z,10.60
2019-03-26T21:19:28.311Z,8.40
2019-03-26T21:22:00.529Z,8.37
2019-03-26T21:24:33.515Z,10.33
2019-03-26T21:27:05.963Z,8.83
2019-03-26T21:29:40.435Z,9.10
2019-03-26T21:32:13.581Z,10.17
2019-03-26T21:34:47.054Z,9.53
2019-03-26T21:37:19.541Z,10.93
2019-03-26T21:39:52.778Z,9.83
2019-03-26T21:42:24.895Z,10.30
2019-03-26T21:44:56.639Z,12.87
2019-03-26T21:47:29.676Z,11.30
2019-03-26T21:50:02.309Z,13.60
2019-03-26T21:52:35.466Z,10.47
2019-03-26T21:55:08.256Z,11.70
2019-03-26T21:57:41.143Z,10.83
2019-03-26T22:00:13.592Z,11.10
2019-03-26T22:02:46.078Z,12.00
2019-03-26T22:05:19.719Z,10.43
2019-03-26T22:07:51.781Z,12.33
2019-03-26T22:10:23.510Z,10.87
2019-03-26T22:12:57.418Z,10.10
2019-03-26T22:15:30.538Z,10.67
2019-03-26T22:18:02.698Z,10.93
2019-03-26T22:20:35.901Z,11.07
2019-03-26T22:23:08.356Z,11.17
2019-03-26T22:25:40.718Z,10.00
2019-03-26T22:28:14.228Z,9.33
2019-03-26T22:30:46.901Z,10.27
2019-03-26T22:33:20.687Z,11.30
2019-03-26T22:35:55.846Z,11.40
2019-03-26T22:38:27.591Z,13.50
2019-03-26T22:41:00.683Z,12.97
2019-03-26T22:43:33.810Z,12.50
2019-03-26T22:46:06.492Z,11.37
2019-03-26T22:48:38.247Z,13.87
2019-03-26T22:51:09.863Z,13.53
2019-03-26T22:53:41.783Z,13.67
2019-03-26T22:56:17.147Z,11.03
2019-03-26T22:58:49.443Z,13.97
2019-03-26T23:01:21.648Z,11.67
2019-03-26T23:03:53.411Z,13.23
2019-03-26T23:06:26.206Z,12.60
2019-03-26T23:08:58.994Z,10.07
2019-03-26T23:11:31.011Z,10.23
2019-03-26T23:14:05.256Z,9.50
2019-03-26T23:16:37.889Z,10.23
2019-03-26T23:19:12.055Z,9.50
2019-03-26T23:21:44.462Z,10.20
2019-03-26T23:24:16.887Z,11.17
2019-03-26T23:26:49.758Z,10.10
2019-03-26T23:29:22.016Z,9.07
2019-03-26T23:31:54.320Z,10.73
2019-03-26T23:34:26.971Z,10.13
2019-03-26T23:36:59.166Z,10.80
2019-03-26T23:39:32.527Z,10.93
2019-03-26T23:42:05.443Z,11.07
2019-03-26T23:44:38.346Z,11.70
2019-03-26T23:47:10.736Z,10.30
2019-03-26T23:49:44.181Z,8.73
2019-03-26T23:52:17.247Z,10.07
2019-03-26T23:54:49.790Z,8.43
2019-03-26T23:57:24.323Z,9.23
2019-03-26T23:59:57.415Z,9.87
